Terminal Aerodrome Forecast
Issued by NWS

Home | Current Version | Previous Version | Text Only | Print | Product List | Glossary On
Versions: 1 2 3 4 5 6 7 8 9 10 11 12 13 14 15 16 17 18 19 20 21 22 23 24 25 26 27 28 29 30 31 32 33 34 35 36 37 38 39 40 41 42 43 44 45 46 47 48 49 50
000
FTUS43 KDVN 221743
TAFCID
TAF
KCID 221743Z 2218/2318 11009KT 1/4SM FG OVC003 WS016/21032KT
     FM222000 13008KT P6SM OVC006 WS016/21032KT
     FM222200 16009KT P6SM BKN045 WS016/20032KT
     FM230100 31012KT 5SM -RA BR OVC011
      TEMPO 2302/2305 VRB20G30KT 1SM TSRA BR OVC010CB
     FM230800 33015G23KT 5SM -SHRA BR OVC008=

USA.gov is the U.S. government's official web portal to all federal, state and local government web resources and services.